createdAt,value
2023-05-05T00:01:33.360Z,29.70
2023-05-05T00:04:00.809Z,30.15
2023-05-05T00:06:31.468Z,29.89
2023-05-05T00:08:58.767Z,30.19
2023-05-05T00:11:26.203Z,29.91
2023-05-05T00:13:53.428Z,30.05
2023-05-05T00:16:20.844Z,30.04
2023-05-05T00:18:48.115Z,30.05
2023-05-05T00:21:15.795Z,30.00
2023-05-05T00:23:43.004Z,29.97
2023-05-05T00:26:10.174Z,29.93
2023-05-05T00:28:38.538Z,30.01
2023-05-05T00:31:05.884Z,29.97
2023-05-05T00:33:33.132Z,30.09
2023-05-05T00:36:00.637Z,30.07
2023-05-05T00:38:27.966Z,30.10
2023-05-05T00:40:55.370Z,30.02
2023-05-05T00:43:22.629Z,30.02
2023-05-05T00:45:55.782Z,29.96
2023-05-05T00:48:25.590Z,29.97
2023-05-05T00:50:52.959Z,29.70
2023-05-05T00:53:20.322Z,29.98
2023-05-05T00:55:47.675Z,30.07
2023-05-05T00:58:15.072Z,30.10
2023-05-05T01:00:42.619Z,30.04
2023-05-05T01:03:09.979Z,29.84
2023-05-05T01:05:51.560Z,30.01
2023-05-05T01:08:27.701Z,29.80
2023-05-05T01:11:01.340Z,29.66
2023-05-05T01:13:42.909Z,30.02
2023-05-05T01:16:24.094Z,29.79
2023-05-05T01:19:11.582Z,29.82
2023-05-05T01:21:41.420Z,29.92
2023-05-05T01:24:08.616Z,29.78
2023-05-05T01:26:36.036Z,29.68
2023-05-05T01:29:12.195Z,29.78
2023-05-05T01:32:08.742Z,29.84
2023-05-05T01:34:39.184Z,29.84
2023-05-05T01:37:06.372Z,30.04
2023-05-05T01:39:35.074Z,29.89
2023-05-05T01:42:04.913Z,29.68
2023-05-05T01:44:33.873Z,29.58
2023-05-05T01:47:01.567Z,29.59
2023-05-05T01:49:29.204Z,29.56
2023-05-05T01:51:58.973Z,29.78
2023-05-05T01:54:27.240Z,29.76
2023-05-05T01:56:57.395Z,29.78
2023-05-05T01:59:25.642Z,29.92
2023-05-05T02:01:53.327Z,29.60
2023-05-05T02:04:22.917Z,29.59
2023-05-05T02:06:53.233Z,29.50
2023-05-05T02:09:21.631Z,29.84
2023-05-05T02:11:49.194Z,29.71
2023-05-05T02:14:17.173Z,29.73
2023-05-05T02:16:44.427Z,29.79
2023-05-05T02:19:12.333Z,29.71
2023-05-05T02:21:39.682Z,29.62
2023-05-05T02:24:07.883Z,29.92
2023-05-05T02:26:38.705Z,29.85
2023-05-05T02:29:08.045Z,29.85
2023-05-05T02:31:39.115Z,29.66
2023-05-05T02:34:07.471Z,29.80
2023-05-05T02:36:38.007Z,29.92
2023-05-05T02:39:14.476Z,30.12
2023-05-05T02:41:44.409Z,29.86
2023-05-05T02:44:23.397Z,29.84
2023-05-05T02:46:51.380Z,29.91
2023-05-05T02:49:19.421Z,29.66
2023-05-05T02:51:46.893Z,29.94
2023-05-05T02:54:23.656Z,29.83
2023-05-05T02:56:53.927Z,29.49
2023-05-05T02:59:31.066Z,29.61
2023-05-05T03:02:00.741Z,29.88
2023-05-05T03:04:35.102Z,29.77
2023-05-05T03:07:06.982Z,29.48
2023-05-05T03:09:38.164Z,29.61
2023-05-05T03:12:07.333Z,29.76
2023-05-05T03:14:46.072Z,29.70
2023-05-05T03:17:17.497Z,29.25
2023-05-05T03:19:46.934Z,29.55
2023-05-05T03:22:14.393Z,29.60
2023-05-05T03:24:49.709Z,29.31
2023-05-05T03:27:17.065Z,29.33
2023-05-05T03:29:44.325Z,29.51
2023-05-05T03:32:14.565Z,28.39
2023-05-05T03:34:42.730Z,29.36
2023-05-05T03:37:10.130Z,29.14
2023-05-05T03:39:38.907Z,29.47
2023-05-05T03:42:07.291Z,29.25
2023-05-05T03:44:35.896Z,28.01
2023-05-05T03:47:03.295Z,29.18
2023-05-05T03:49:32.868Z,28.98
2023-05-05T03:52:00.800Z,29.28
2023-05-05T03:54:28.825Z,29.18
2023-05-05T03:56:56.614Z,28.46
2023-05-05T03:59:23.768Z,28.48
2023-05-05T04:01:51.211Z,28.65
2023-05-05T04:04:18.448Z,28.08
2023-05-05T04:06:46.057Z,29.20
2023-05-05T04:09:14.657Z,29.13
2023-05-05T04:11:43.538Z,28.88
2023-05-05T04:14:11.432Z,29.49
2023-05-05T04:16:38.799Z,28.58
2023-05-05T04:19:06.036Z,28.93
2023-05-05T04:21:33.497Z,28.92
2023-05-05T04:24:01.328Z,29.29
2023-05-05T04:26:28.685Z,29.24
2023-05-05T04:28:56.377Z,28.31
2023-05-05T04:31:23.935Z,29.28
2023-05-05T04:33:51.688Z,28.55
2023-05-05T04:36:19.350Z,28.79
2023-05-05T04:38:47.843Z,28.96
2023-05-05T04:41:15.031Z,28.95
2023-05-05T04:43:43.904Z,29.40
2023-05-05T04:46:11.284Z,29.19
2023-05-05T04:48:39.014Z,28.99
2023-05-05T04:51:07.710Z,28.84
2023-05-05T04:53:36.194Z,29.21
2023-05-05T04:56:03.594Z,29.79
2023-05-05T04:58:31.245Z,29.95
2023-05-05T05:00:58.835Z,29.68
2023-05-05T05:03:26.410Z,29.47
2023-05-05T05:05:54.245Z,29.86
2023-05-05T05:08:21.605Z,29.78
2023-05-05T05:10:48.890Z,29.50
2023-05-05T05:13:17.247Z,29.97
2023-05-05T05:15:45.202Z,29.76
2023-05-05T05:18:12.792Z,30.12
2023-05-05T05:20:40.066Z,29.34
2023-05-05T05:23:07.493Z,28.98
2023-05-05T05:25:38.640Z,28.90
2023-05-05T05:28:09.513Z,28.45
2023-05-05T05:30:42.045Z,28.34
2023-05-05T05:33:11.061Z,28.41
2023-05-05T05:35:39.700Z,27.98
2023-05-05T05:38:07.388Z,27.98
2023-05-05T05:40:34.593Z,27.98
2023-05-05T05:43:03.245Z,28.98
2023-05-05T05:45:31.426Z,28.97
2023-05-05T05:47:58.794Z,28.77
2023-05-05T05:50:28.662Z,28.36
2023-05-05T05:52:57.072Z,28.75
2023-05-05T05:55:25.289Z,28.07
2023-05-05T05:57:53.253Z,28.51
2023-05-05T06:00:21.295Z,28.13
2023-05-05T06:02:55.501Z,28.72
2023-05-05T06:05:26.190Z,29.29
2023-05-05T06:07:53.916Z,29.59
2023-05-05T06:10:27.937Z,29.00
2023-05-05T06:13:01.615Z,29.27
2023-05-05T06:15:30.424Z,29.29
2023-05-05T06:17:57.886Z,29.70
2023-05-05T06:20:25.248Z,29.24
2023-05-05T06:22:52.778Z,29.44
2023-05-05T06:25:20.275Z,29.08
2023-05-05T06:27:49.315Z,29.22
2023-05-05T06:30:16.582Z,28.90
2023-05-05T06:32:43.841Z,28.66
2023-05-05T06:35:11.190Z,28.66
2023-05-05T06:37:38.458Z,28.43
2023-05-05T06:40:06.949Z,29.39
2023-05-05T06:42:34.356Z,29.82
2023-05-05T06:45:04.541Z,30.14
2023-05-05T06:47:31.713Z,29.71
2023-05-05T06:49:59.002Z,29.99
2023-05-05T06:52:26.355Z,29.96
2023-05-05T06:54:53.506Z,30.25
2023-05-05T06:57:20.828Z,29.91
2023-05-05T06:59:48.025Z,29.63
2023-05-05T07:02:15.224Z,29.78
2023-05-05T07:04:42.751Z,29.51
2023-05-05T07:07:09.894Z,29.89
2023-05-05T07:09:37.059Z,29.82
2023-05-05T07:12:04.511Z,30.28
2023-05-05T07:14:31.668Z,30.35
2023-05-05T07:16:58.880Z,30.13
2023-05-05T07:19:26.080Z,29.95
2023-05-05T07:21:53.404Z,30.14
2023-05-05T07:24:20.701Z,30.31
2023-05-05T07:26:47.917Z,30.19
2023-05-05T07:29:15.071Z,30.53
2023-05-05T07:31:42.398Z,30.27
2023-05-05T07:34:09.650Z,30.58
2023-05-05T07:36:36.923Z,30.03
2023-05-05T07:39:04.140Z,29.90
2023-05-05T07:41:31.310Z,29.86
2023-05-05T07:43:58.580Z,29.90
2023-05-05T07:46:25.829Z,29.77
2023-05-05T07:48:53.179Z,29.98
2023-05-05T07:51:21.558Z,30.09
2023-05-05T07:53:48.744Z,29.65
2023-05-05T07:56:16.010Z,29.84
2023-05-05T07:58:43.265Z,29.00
2023-05-05T08:01:11.351Z,29.44
2023-05-05T08:03:38.753Z,29.67
2023-05-05T08:06:07.672Z,29.38
2023-05-05T08:08:34.847Z,29.30
2023-05-05T08:11:02.455Z,29.34
2023-05-05T08:13:30.463Z,28.83
2023-05-05T08:15:57.680Z,29.67
2023-05-05T08:18:25.069Z,29.73
2023-05-05T08:20:53.074Z,29.62
2023-05-05T08:23:20.326Z,30.01
2023-05-05T08:25:47.557Z,30.06
2023-05-05T08:28:14.821Z,29.98
2023-05-05T08:30:42.996Z,30.18
2023-05-05T08:33:10.373Z,30.19
2023-05-05T08:35:37.730Z,30.17
2023-05-05T08:38:05.021Z,30.25
2023-05-05T08:40:36.556Z,30.16
2023-05-05T08:43:04.057Z,29.96
2023-05-05T08:45:31.804Z,30.21
2023-05-05T08:48:03.163Z,30.01
2023-05-05T08:50:31.031Z,30.23
2023-05-05T08:53:18.518Z,29.92
2023-05-05T08:55:50.064Z,30.31
2023-05-05T08:58:21.358Z,30.43
2023-05-05T09:00:50.068Z,30.38
2023-05-05T09:03:17.761Z,30.45
2023-05-05T09:05:45.140Z,30.14
2023-05-05T09:08:12.390Z,29.92
2023-05-05T09:10:43.278Z,30.05
2023-05-05T09:13:10.902Z,30.02
2023-05-05T09:15:58.452Z,30.11
2023-05-05T09:18:26.249Z,30.31
2023-05-05T09:20:53.560Z,30.22
2023-05-05T09:23:21.480Z,30.07
2023-05-05T09:26:04.429Z,30.12
2023-05-05T09:28:32.153Z,30.39
2023-05-05T09:31:12.331Z,29.93
2023-05-05T09:33:39.715Z,30.07
2023-05-05T09:36:06.929Z,29.92
2023-05-05T09:38:34.795Z,29.92
2023-05-05T09:41:02.040Z,29.68
2023-05-05T09:43:29.224Z,29.69
2023-05-05T09:46:08.704Z,29.74
2023-05-05T09:48:36.162Z,29.52
2023-05-05T09:51:03.926Z,29.74
2023-05-05T09:53:38.397Z,29.95
2023-05-05T09:56:05.918Z,29.47
2023-05-05T09:58:33.226Z,29.76
2023-05-05T10:01:00.801Z,29.79
2023-05-05T10:03:28.015Z,29.67
2023-05-05T10:05:56.529Z,29.40
2023-05-05T10:08:25.103Z,29.81
2023-05-05T10:10:52.555Z,29.35
2023-05-05T10:13:21.064Z,29.72
2023-05-05T10:15:50.181Z,29.56
2023-05-05T10:18:22.192Z,29.49
2023-05-05T10:20:53.221Z,29.69
2023-05-05T10:23:22.816Z,29.67
2023-05-05T10:25:52.172Z,29.95
2023-05-05T10:28:23.340Z,29.25
2023-05-05T10:30:53.738Z,29.48
2023-05-05T10:35:53.637Z,28.82
2023-05-05T10:38:21.301Z,29.30
2023-05-05T10:40:48.917Z,29.36
2023-05-05T10:43:17.088Z,29.99
2023-05-05T10:45:44.802Z,29.92
2023-05-05T10:48:14.284Z,30.12
2023-05-05T10:50:44.957Z,30.32
2023-05-05T10:53:28.331Z,30.35
2023-05-05T10:56:11.037Z,30.32
2023-05-05T10:58:55.639Z,29.77
2023-05-05T11:01:31.303Z,30.08
2023-05-05T11:04:37.245Z,30.25
2023-05-05T11:07:13.813Z,30.16
2023-05-05T11:10:14.391Z,30.01
2023-05-05T11:13:03.153Z,29.91
2023-05-05T11:15:30.634Z,29.79
2023-05-05T11:17:58.559Z,29.71
2023-05-05T11:20:39.674Z,29.97
2023-05-05T11:23:07.223Z,29.87
2023-05-05T11:25:34.508Z,29.72
2023-05-05T11:28:08.334Z,30.04
2023-05-05T11:30:36.293Z,30.30
2023-05-05T11:33:22.429Z,30.28
2023-05-05T11:35:56.357Z,30.28
2023-05-05T11:38:38.888Z,30.11
2023-05-05T11:41:12.447Z,29.74
2023-05-05T11:43:42.858Z,30.28
2023-05-05T11:46:16.860Z,30.43
2023-05-05T11:48:46.091Z,29.89
2023-05-05T11:51:13.976Z,30.30
2023-05-05T11:53:45.140Z,30.06
2023-05-05T11:56:18.826Z,29.87
2023-05-05T11:58:46.827Z,30.24
2023-05-05T12:01:14.586Z,30.23
2023-05-05T12:03:42.202Z,30.17
2023-05-05T12:06:09.549Z,30.36
2023-05-05T12:08:37.631Z,30.04
2023-05-05T12:11:05.508Z,30.45
2023-05-05T12:13:32.706Z,29.88
2023-05-05T12:16:13.084Z,29.96
2023-05-05T12:18:40.898Z,29.91
2023-05-05T12:21:34.360Z,29.96
2023-05-05T12:24:01.639Z,29.86
2023-05-05T12:26:30.149Z,30.06
2023-05-05T12:28:58.038Z,30.12
2023-05-05T12:31:37.990Z,30.07
2023-05-05T12:34:06.440Z,30.23
2023-05-05T12:36:34.123Z,30.21
2023-05-05T12:39:01.739Z,30.12
2023-05-05T12:41:28.977Z,29.98
2023-05-05T12:43:59.517Z,29.78
2023-05-05T12:46:27.340Z,30.06
2023-05-05T12:49:05.409Z,29.95
2023-05-05T12:51:33.694Z,30.28
2023-05-05T12:54:02.326Z,30.19
2023-05-05T12:56:35.672Z,30.21
2023-05-05T12:59:03.964Z,30.15
2023-05-05T13:01:31.374Z,30.04
2023-05-05T13:04:12.196Z,30.23
2023-05-05T13:06:40.263Z,30.16
2023-05-05T13:09:07.785Z,30.32
2023-05-05T13:11:36.379Z,30.35
2023-05-05T13:14:03.844Z,30.16
2023-05-05T13:16:31.292Z,30.20
2023-05-05T13:18:58.473Z,30.18
2023-05-05T13:21:26.104Z,30.29
2023-05-05T13:23:53.958Z,30.34
2023-05-05T13:26:21.445Z,30.23
2023-05-05T13:28:48.990Z,30.22
2023-05-05T13:31:16.391Z,30.07
2023-05-05T13:33:43.752Z,30.15
2023-05-05T13:36:10.955Z,30.23
2023-05-05T13:38:38.245Z,30.18
2023-05-05T13:41:05.506Z,30.18
2023-05-05T13:43:32.757Z,29.90
2023-05-05T13:46:12.302Z,30.07
2023-05-05T13:48:43.683Z,30.30
2023-05-05T13:51:11.236Z,30.27
2023-05-05T13:53:39.948Z,30.29
2023-05-05T13:56:07.472Z,30.77
2023-05-05T13:58:37.173Z,30.32
2023-05-05T14:01:04.865Z,30.38
2023-05-05T14:03:32.083Z,30.47
2023-05-05T14:05:59.815Z,30.39
2023-05-05T14:08:27.392Z,30.29
2023-05-05T14:10:54.644Z,30.42
2023-05-05T14:13:21.836Z,30.23
2023-05-05T14:15:50.750Z,30.09
2023-05-05T14:18:17.924Z,30.51
2023-05-05T14:20:45.115Z,30.37
2023-05-05T14:23:12.265Z,30.16
2023-05-05T14:25:39.424Z,30.05
2023-05-05T14:28:07.222Z,30.03
2023-05-05T14:30:34.431Z,30.22
2023-05-05T14:33:01.661Z,30.49
2023-05-05T14:35:29.200Z,30.43
2023-05-05T14:37:56.400Z,30.16
2023-05-05T14:40:23.683Z,30.20
2023-05-05T14:42:51.139Z,30.17
2023-05-05T14:45:18.397Z,29.44
2023-05-05T14:47:45.600Z,29.94
2023-05-05T14:50:14.249Z,30.37
2023-05-05T14:52:41.543Z,30.37
2023-05-05T14:55:09.260Z,30.59
2023-05-05T14:57:38.312Z,30.16
2023-05-05T15:00:08.501Z,30.44
2023-05-05T15:02:35.878Z,29.99
2023-05-05T15:05:03.294Z,29.97
2023-05-05T15:07:30.726Z,30.43
2023-05-05T15:09:57.878Z,30.09
2023-05-05T15:12:26.085Z,30.34
2023-05-05T15:14:53.265Z,30.19
2023-05-05T15:17:20.494Z,29.83
2023-05-05T15:19:47.736Z,30.24
2023-05-05T15:22:14.948Z,30.25
2023-05-05T15:24:42.203Z,30.21
2023-05-05T15:27:09.450Z,30.47
2023-05-05T15:29:36.764Z,30.12
2023-05-05T15:32:04.109Z,30.19
2023-05-05T15:34:31.425Z,30.40
2023-05-05T15:36:58.634Z,30.34
2023-05-05T15:39:25.844Z,30.12
2023-05-05T15:41:53.035Z,30.14
2023-05-05T15:44:20.322Z,30.48
2023-05-05T15:46:50.237Z,29.73
2023-05-05T15:49:17.746Z,29.72
2023-05-05T15:51:44.939Z,30.19
2023-05-05T15:54:12.190Z,29.86
2023-05-05T15:56:39.458Z,29.70
2023-05-05T15:59:07.138Z,29.79
2023-05-05T16:01:36.340Z,30.35
2023-05-05T16:04:03.743Z,30.64
2023-05-05T16:06:31.036Z,29.34
2023-05-05T16:08:58.764Z,30.21
2023-05-05T16:11:26.644Z,30.40
2023-05-05T16:13:53.911Z,30.15
2023-05-05T16:16:21.331Z,30.18
2023-05-05T16:18:48.631Z,29.98
2023-05-05T16:21:15.834Z,30.10
2023-05-05T16:23:43.446Z,30.15
2023-05-05T16:26:10.637Z,30.27
2023-05-05T16:28:38.055Z,30.57
2023-05-05T16:31:05.565Z,30.00
2023-05-05T16:33:32.757Z,30.26
2023-05-05T16:35:59.945Z,30.43
2023-05-05T16:38:27.170Z,30.77
2023-05-05T16:40:54.422Z,30.51
2023-05-05T16:43:21.575Z,30.60
2023-05-05T16:45:48.772Z,30.10
2023-05-05T16:48:17.607Z,30.08
2023-05-05T16:50:45.066Z,29.98
2023-05-05T16:53:12.331Z,30.50
2023-05-05T16:55:39.541Z,30.19
2023-05-05T16:58:06.805Z,30.33
2023-05-05T17:00:34.184Z,29.96
2023-05-05T17:03:01.383Z,30.11
2023-05-05T17:05:28.664Z,30.44
2023-05-05T17:07:55.903Z,30.32
2023-05-05T17:10:23.339Z,30.33
2023-05-05T17:12:50.625Z,29.78
2023-05-05T17:15:17.924Z,30.13
2023-05-05T17:17:45.187Z,29.96
2023-05-05T17:20:12.714Z,30.08
2023-05-05T17:22:40.009Z,29.90
2023-05-05T17:25:07.544Z,30.09
2023-05-05T17:27:34.838Z,29.79
2023-05-05T17:30:02.103Z,30.24
2023-05-05T17:32:29.621Z,29.96
2023-05-05T17:34:57.022Z,30.30
2023-05-05T17:37:24.204Z,30.23
2023-05-05T17:39:51.425Z,30.17
2023-05-05T17:42:22.856Z,30.31
2023-05-05T17:44:50.253Z,30.50
2023-05-05T17:47:22.251Z,30.06
2023-05-05T17:49:49.885Z,30.28
2023-05-05T17:52:17.124Z,30.29
2023-05-05T17:54:44.392Z,30.38
2023-05-05T17:57:12.704Z,30.27
2023-05-05T17:59:39.895Z,30.05
2023-05-05T18:02:07.279Z,30.06
2023-05-05T18:04:36.193Z,30.15
2023-05-05T18:07:03.565Z,30.71
2023-05-05T18:09:31.318Z,30.22
2023-05-05T18:11:58.495Z,30.00
2023-05-05T18:14:25.834Z,30.42
2023-05-05T18:16:53.096Z,30.20
2023-05-05T18:19:21.276Z,30.14
2023-05-05T18:21:48.988Z,30.37
2023-05-05T18:24:20.524Z,30.46
2023-05-05T18:26:50.007Z,30.45
2023-05-05T18:29:21.724Z,30.49
2023-05-05T18:31:51.929Z,30.25
2023-05-05T18:34:20.578Z,30.09
2023-05-05T18:36:47.940Z,30.39
2023-05-05T18:39:15.336Z,30.31
2023-05-05T18:41:42.563Z,30.45
2023-05-05T18:44:10.446Z,30.39
2023-05-05T18:46:37.728Z,30.25
2023-05-05T18:49:05.115Z,30.06
2023-05-05T18:51:32.376Z,30.07
2023-05-05T18:54:00.898Z,30.34
2023-05-05T18:56:28.176Z,30.34
2023-05-05T18:58:55.704Z,30.28
2023-05-05T19:01:23.473Z,30.40
2023-05-05T19:03:50.781Z,30.33
2023-05-05T19:06:18.126Z,30.51
2023-05-05T19:08:45.648Z,30.18
2023-05-05T19:11:14.818Z,30.18
2023-05-05T19:13:42.493Z,30.28
2023-05-05T19:16:11.280Z,30.16
2023-05-05T19:18:39.293Z,30.41
2023-05-05T19:21:06.549Z,30.35
2023-05-05T19:23:36.039Z,30.34
2023-05-05T19:26:06.056Z,30.44
2023-05-05T19:28:33.385Z,30.40
2023-05-05T19:31:00.690Z,30.27
2023-05-05T19:33:27.999Z,30.55
2023-05-05T19:35:55.354Z,30.38
2023-05-05T19:38:22.692Z,30.62
2023-05-05T19:40:50.503Z,30.54
2023-05-05T19:43:17.660Z,30.34
2023-05-05T19:45:44.941Z,30.58
2023-05-05T19:48:12.187Z,30.38
2023-05-05T19:50:39.486Z,30.63
2023-05-05T19:53:06.713Z,30.22
2023-05-05T19:55:33.893Z,30.23
2023-05-05T19:58:01.113Z,30.29
2023-05-05T20:00:28.428Z,30.43
2023-05-05T20:02:55.655Z,30.43
2023-05-05T20:05:22.871Z,30.42
2023-05-05T20:07:50.592Z,30.44
2023-05-05T20:10:17.981Z,29.90
2023-05-05T20:12:48.461Z,30.18
2023-05-05T20:15:19.082Z,29.79
2023-05-05T20:17:46.989Z,30.27
2023-05-05T20:20:18.850Z,29.71
2023-05-05T20:22:46.682Z,29.43
2023-05-05T20:25:16.098Z,29.51
2023-05-05T20:27:43.764Z,29.63
2023-05-05T20:30:12.035Z,29.80
2023-05-05T20:32:39.567Z,30.17
2023-05-05T20:35:07.488Z,29.75
2023-05-05T20:37:34.689Z,29.89
2023-05-05T20:40:01.907Z,29.55
2023-05-05T20:42:29.862Z,30.07
2023-05-05T20:44:57.225Z,28.36
2023-05-05T20:47:24.929Z,29.23
2023-05-05T20:49:52.544Z,28.68
2023-05-05T20:52:19.937Z,28.70
2023-05-05T20:54:47.092Z,29.44
2023-05-05T20:57:14.286Z,29.89
2023-05-05T20:59:41.610Z,29.73
2023-05-05T21:02:09.138Z,28.45
2023-05-05T21:04:36.416Z,29.31
2023-05-05T21:07:03.631Z,29.10
2023-05-05T21:09:31.573Z,29.47
2023-05-05T21:11:58.910Z,29.29
2023-05-05T21:14:26.167Z,30.09
2023-05-05T21:16:53.387Z,29.21
2023-05-05T21:19:21.290Z,28.98
2023-05-05T21:21:48.620Z,29.79
2023-05-05T21:24:15.832Z,29.34
2023-05-05T21:26:44.234Z,29.04
2023-05-05T21:29:11.699Z,29.74
2023-05-05T21:31:39.006Z,28.99
2023-05-05T21:34:06.218Z,29.33
2023-05-05T21:36:34.063Z,28.21
2023-05-05T21:39:01.346Z,28.94
2023-05-05T21:41:28.478Z,29.50
2023-05-05T21:43:55.814Z,29.03
2023-05-05T21:46:23.214Z,28.62
2023-05-05T21:48:50.513Z,28.66
2023-05-05T21:51:17.730Z,28.67
2023-05-05T21:53:44.906Z,28.82
2023-05-05T21:56:12.058Z,29.22
2023-05-05T21:58:41.069Z,28.13
2023-05-05T22:01:08.285Z,28.87
2023-05-05T22:03:36.173Z,29.01
2023-05-05T22:06:03.449Z,28.25
2023-05-05T22:08:30.661Z,28.14
2023-05-05T22:10:57.840Z,27.85
2023-05-05T22:13:25.077Z,28.06
2023-05-05T22:15:52.283Z,27.90
2023-05-05T22:18:19.532Z,27.98
2023-05-05T22:20:47.061Z,27.89
2023-05-05T22:23:14.316Z,27.91
2023-05-05T22:25:41.587Z,28.39
2023-05-05T22:28:08.849Z,27.60
2023-05-05T22:30:36.119Z,28.75
2023-05-05T22:33:03.785Z,28.54
2023-05-05T22:35:31.252Z,28.35
2023-05-05T22:37:59.471Z,28.26
2023-05-05T22:40:26.621Z,28.79
2023-05-05T22:42:53.835Z,28.38
2023-05-05T22:45:21.931Z,28.16
2023-05-05T22:47:49.564Z,28.01
2023-05-05T22:50:16.771Z,28.56
2023-05-05T22:52:44.097Z,29.16
2023-05-05T22:55:14.076Z,28.74
2023-05-05T22:57:41.888Z,28.50
2023-05-05T23:00:10.583Z,28.18
2023-05-05T23:02:37.962Z,28.74
2023-05-05T23:05:05.457Z,28.82
2023-05-05T23:07:32.764Z,29.06
2023-05-05T23:10:00.002Z,28.37
2023-05-05T23:12:27.193Z,28.54
2023-05-05T23:14:54.415Z,29.12
2023-05-05T23:17:21.735Z,29.37
2023-05-05T23:19:49.466Z,29.61
2023-05-05T23:22:16.712Z,29.72
2023-05-05T23:24:43.862Z,29.48
2023-05-05T23:27:12.884Z,28.77
2023-05-05T23:29:40.103Z,29.25
2023-05-05T23:32:07.401Z,28.12
2023-05-05T23:34:34.553Z,28.30
2023-05-05T23:37:02.541Z,28.02
2023-05-05T23:39:33.054Z,28.01
2023-05-05T23:42:00.266Z,27.68
2023-05-05T23:44:27.792Z,27.91
2023-05-05T23:46:55.029Z,27.35
2023-05-05T23:49:23.823Z,27.96
2023-05-05T23:51:51.008Z,28.72
2023-05-05T23:54:18.486Z,28.75
2023-05-05T23:56:47.801Z,28.17
2023-05-05T23:59:15.013Z,29.31
